Time;durP1;ratioP1;P1;durP2;ratioP2;P2;SDS_P1;SDS_P2;PMS_P1;PMS_P2;Temp;Humidity;BMP_temperature;BMP_pressure;BME280_temperature;BME280_humidity;BME280_pressure;Samples;Min_cycle;Max_cycle;Signal;HPM_P1;HPM_P2
2024/01/21 00:00:26;;;;;;;11.18;4.90;;;0.70;99.90;;;;;;5093915;28;20545;-64
2024/01/21 00:02:53;;;;;;;9.30;4.93;;;0.70;99.90;;;;;;5111514;28;20477;-63
2024/01/21 00:05:18;;;;;;;9.77;5.25;;;0.70;99.90;;;;;;5111467;28;20039;-64
2024/01/21 00:07:44;;;;;;;11.27;5.30;;;0.70;99.90;;;;;;5111049;28;20370;-63
2024/01/21 00:10:10;;;;;;;9.65;4.97;;;0.70;99.90;;;;;;5094185;28;20101;-64
2024/01/21 00:12:41;;;;;;;9.38;4.90;;;0.70;99.90;;;;;;5111304;28;20395;-63
2024/01/21 00:15:07;;;;;;;12.23;4.95;;;0.80;99.90;;;;;;5110998;28;20044;-64
2024/01/21 00:17:33;;;;;;;9.98;4.93;;;0.80;99.90;;;;;;5094322;28;20530;-64
2024/01/21 00:19:59;;;;;;;9.55;5.25;;;0.70;99.90;;;;;;5111667;28;20055;-63
2024/01/21 00:22:25;;;;;;;10.10;5.65;;;0.70;99.90;;;;;;5110281;28;20549;-64
2024/01/21 00:24:51;;;;;;;11.57;4.88;;;0.70;99.90;;;;;;5110918;28;20504;-63
2024/01/21 00:27:17;;;;;;;10.57;4.65;;;0.70;99.90;;;;;;5093888;28;20032;-64
2024/01/21 00:29:43;;;;;;;11.70;5.30;;;0.70;99.90;;;;;;5110261;28;20079;-64
2024/01/21 00:32:09;;;;;;;10.25;4.95;;;0.70;99.90;;;;;;5111140;28;20448;-64
2024/01/21 00:34:34;;;;;;;11.80;5.22;;;0.60;99.90;;;;;;5110815;28;20048;-64
2024/01/21 00:37:00;;;;;;;10.25;4.90;;;0.60;99.90;;;;;;5093144;28;20108;-63
2024/01/21 00:39:26;;;;;;;10.15;4.95;;;0.60;99.90;;;;;;5097567;28;20198;-64
2024/01/21 00:41:51;;;;;;;10.75;5.32;;;0.60;99.90;;;;;;5072668;28;20508;-63
2024/01/21 00:44:18;;;;;;;16.08;4.95;;;0.60;99.90;;;;;;5071804;28;20115;-64
2024/01/21 00:46:44;;;;;;;11.82;6.18;;;0.60;99.90;;;;;;5073219;28;20116;-63
2024/01/21 00:49:10;;;;;;;12.30;5.45;;;0.60;99.90;;;;;;5072555;28;20509;-64
2024/01/21 00:51:36;;;;;;;12.55;5.82;;;0.60;99.90;;;;;;5073485;28;20040;-64
2024/01/21 00:54:02;;;;;;;10.85;5.60;;;0.60;99.90;;;;;;5073800;28;20493;-64
2024/01/21 00:56:28;;;;;;;11.95;4.82;;;0.60;99.90;;;;;;5055745;28;20513;-63
2024/01/21 00:58:53;;;;;;;11.13;5.88;;;0.60;99.90;;;;;;5072978;28;20078;-63
2024/01/21 01:01:19;;;;;;;9.57;5.07;;;0.60;99.90;;;;;;5056514;28;20047;-64
2024/01/21 01:03:45;;;;;;;13.10;5.60;;;0.60;99.90;;;;;;5072019;28;20048;-63
2024/01/21 01:06:10;;;;;;;9.43;5.65;;;0.60;99.90;;;;;;5072723;28;20037;-63
2024/01/21 01:08:36;;;;;;;13.13;5.78;;;0.60;99.90;;;;;;5074179;28;20064;-64
2024/01/21 01:11:02;;;;;;;11.27;5.07;;;0.60;99.90;;;;;;5072580;28;20037;-64
2024/01/21 01:13:28;;;;;;;10.57;6.13;;;0.70;99.90;;;;;;5072672;28;20516;-64
2024/01/21 01:15:53;;;;;;;14.25;6.60;;;0.60;99.90;;;;;;5074030;28;20456;-64
2024/01/21 01:18:19;;;;;;;11.75;6.15;;;0.70;99.90;;;;;;5072196;28;20052;-64
2024/01/21 01:20:45;;;;;;;12.73;5.93;;;0.70;99.90;;;;;;5073031;28;20502;-64
2024/01/21 01:23:11;;;;;;;9.57;5.75;;;0.70;99.90;;;;;;5072636;28;20379;-63
2024/01/21 01:25:37;;;;;;;11.48;6.22;;;0.70;99.90;;;;;;5071899;28;20051;-64
2024/01/21 01:28:03;;;;;;;10.77;5.22;;;0.70;99.90;;;;;;5072846;28;20485;-63
2024/01/21 01:30:29;;;;;;;10.88;5.38;;;0.70;99.90;;;;;;5072366;28;20042;-63
2024/01/21 01:32:56;;;;;;;9.07;5.22;;;0.80;99.90;;;;;;5072304;28;20044;-63
2024/01/21 01:35:25;;;;;;;11.20;5.10;;;0.80;99.90;;;;;;5081648;28;20056;-64
2024/01/21 01:37:51;;;;;;;10.27;4.28;;;0.80;99.90;;;;;;5092687;28;20044;-63
2024/01/21 01:40:20;;;;;;;10.02;5.07;;;0.80;99.90;;;;;;5093004;28;20039;-63
2024/01/21 01:42:57;;;;;;;9.85;4.68;;;0.90;99.90;;;;;;5093602;28;20044;-64
2024/01/21 01:45:24;;;;;;;11.35;5.38;;;0.90;99.90;;;;;;5074922;28;20427;-63
2024/01/21 01:47:50;;;;;;;8.23;4.30;;;1.00;99.90;;;;;;5093549;28;20040;-64
2024/01/21 01:50:17;;;;;;;8.55;4.47;;;1.00;99.90;;;;;;5092339;28;20048;-63
2024/01/21 01:52:44;;;;;;;10.15;5.25;;;1.00;99.90;;;;;;5091775;28;20043;-63
2024/01/21 01:55:10;;;;;;;9.45;4.35;;;1.10;99.90;;;;;;5091717;28;20552;-63
2024/01/21 01:57:37;;;;;;;10.23;4.18;;;1.10;99.90;;;;;;5091827;28;20092;-64
2024/01/21 02:00:06;;;;;;;10.43;4.25;;;1.10;99.90;;;;;;5091599;28;20485;-64
2024/01/21 02:02:33;;;;;;;10.52;4.75;;;1.10;99.90;;;;;;5092514;28;20534;-63
2024/01/21 02:05:03;;;;;;;9.95;4.07;;;1.10;99.90;;;;;;5092029;28;20036;-64
2024/01/21 02:07:30;;;;;;;8.80;3.92;;;1.10;99.90;;;;;;5090853;28;20067;-64
2024/01/21 02:09:56;;;;;;;10.65;5.10;;;1.10;99.90;;;;;;5092389;28;20047;-64
2024/01/21 02:12:24;;;;;;;8.00;3.83;;;1.10;99.90;;;;;;5108536;28;20119;-63
2024/01/21 02:14:50;;;;;;;9.80;4.38;;;1.10;99.90;;;;;;5092217;28;20044;-64
2024/01/21 02:17:16;;;;;;;8.32;4.05;;;1.00;99.90;;;;;;5108789;28;20048;-64
2024/01/21 02:19:43;;;;;;;10.25;3.97;;;1.00;99.90;;;;;;5091809;28;20043;-64
2024/01/21 02:22:08;;;;;;;8.25;3.85;;;1.10;99.90;;;;;;5108090;28;20040;-63
2024/01/21 02:24:34;;;;;;;8.30;3.80;;;1.10;99.90;;;;;;5108553;28;20374;-64
2024/01/21 02:27:00;;;;;;;9.10;4.10;;;1.10;99.90;;;;;;5109039;28;20048;-64
2024/01/21 02:29:28;;;;;;;8.60;3.63;;;1.10;99.90;;;;;;5090679;28;20048;-64
2024/01/21 02:31:54;;;;;;;9.27;4.15;;;1.20;99.90;;;;;;5091426;28;20117;-64
2024/01/21 02:34:20;;;;;;;7.15;3.40;;;1.10;99.90;;;;;;5090632;28;20036;-64
2024/01/21 02:36:47;;;;;;;7.88;3.78;;;1.10;99.90;;;;;;5091580;28;20048;-64
2024/01/21 02:39:12;;;;;;;9.95;3.88;;;1.20;99.90;;;;;;5091364;28;20048;-64
2024/01/21 02:41:38;;;;;;;9.18;4.18;;;1.20;99.90;;;;;;5090448;28;20040;-63
2024/01/21 02:44:04;;;;;;;8.43;5.07;;;1.20;99.90;;;;;;5108453;28;20048;-64
2024/01/21 02:46:31;;;;;;;8.88;4.03;;;1.20;99.90;;;;;;5090982;28;20050;-63
2024/01/21 02:48:57;;;;;;;8.40;4.38;;;1.20;99.90;;;;;;5107769;28;20043;-64
2024/01/21 02:51:25;;;;;;;10.65;4.15;;;1.20;99.90;;;;;;5108220;28;20401;-64
2024/01/21 02:53:51;;;;;;;9.60;3.97;;;1.20;99.90;;;;;;5092347;28;20461;-64
2024/01/21 02:56:24;;;;;;;8.57;4.03;;;1.20;99.90;;;;;;5090429;28;20054;-64
2024/01/21 02:58:53;;;;;;;9.30;4.47;;;1.20;99.90;;;;;;5091107;28;20071;-64
2024/01/21 03:01:19;;;;;;;9.82;4.53;;;1.20;99.90;;;;;;5091296;28;20048;-64
2024/01/21 03:03:46;;;;;;;11.98;4.40;;;1.20;99.90;;;;;;5089990;28;20044;-64
2024/01/21 03:06:12;;;;;;;7.50;4.25;;;1.20;99.90;;;;;;5090088;28;20040;-64
2024/01/21 03:08:38;;;;;;;8.13;4.30;;;1.20;99.90;;;;;;5091713;28;20032;-64
2024/01/21 03:11:04;;;;;;;9.45;4.50;;;1.20;99.90;;;;;;5090645;28;20417;-63
2024/01/21 03:13:30;;;;;;;9.00;3.97;;;1.20;99.90;;;;;;5090693;28;20040;-64
2024/01/21 03:15:56;;;;;;;7.20;3.53;;;1.20;99.90;;;;;;5108256;28;20048;-63
2024/01/21 03:18:22;;;;;;;9.20;3.33;;;1.20;99.90;;;;;;5090146;28;20036;-64
2024/01/21 03:20:47;;;;;;;7.35;4.05;;;1.20;99.90;;;;;;5091069;28;20059;-64
2024/01/21 03:23:14;;;;;;;8.40;3.58;;;1.20;99.90;;;;;;5090676;28;20480;-64
2024/01/21 03:25:40;;;;;;;8.50;3.40;;;1.30;99.90;;;;;;5089945;28;20044;-64
2024/01/21 03:28:06;;;;;;;7.28;3.20;;;1.30;99.90;;;;;;5074503;28;20062;-64
2024/01/21 03:30:32;;;;;;;8.90;4.40;;;1.30;99.90;;;;;;5091956;28;20412;-64
2024/01/21 03:32:58;;;;;;;7.55;3.80;;;1.20;99.90;;;;;;5073751;28;20043;-64
2024/01/21 03:35:23;;;;;;;9.00;4.07;;;1.20;99.90;;;;;;5107391;28;20048;-64
2024/01/21 03:37:49;;;;;;;7.22;3.67;;;1.20;99.90;;;;;;5090043;28;20547;-64
2024/01/21 03:40:16;;;;;;;9.93;3.95;;;1.20;99.90;;;;;;5090497;28;20089;-64
2024/01/21 03:42:45;;;;;;;8.48;3.45;;;1.20;99.90;;;;;;5107569;28;20047;-64
2024/01/21 03:45:11;;;;;;;7.25;3.50;;;1.20;99.90;;;;;;5089631;28;20051;-64
2024/01/21 03:47:38;;;;;;;7.03;3.13;;;1.20;99.90;;;;;;5090492;28;20473;-64
2024/01/21 03:50:04;;;;;;;7.88;3.60;;;1.20;99.90;;;;;;5090892;28;20115;-64
2024/01/21 03:52:30;;;;;;;6.55;3.45;;;1.20;99.90;;;;;;5090620;28;20048;-64
2024/01/21 03:54:57;;;;;;;7.35;3.45;;;1.20;99.90;;;;;;5107596;28;20052;-64
2024/01/21 03:57:22;;;;;;;7.18;3.20;;;1.30;99.90;;;;;;5107229;28;20079;-64
2024/01/21 03:59:48;;;;;;;6.78;3.22;;;1.30;99.90;;;;;;5089720;28;20441;-64
2024/01/21 04:02:14;;;;;;;7.05;2.67;;;1.40;99.90;;;;;;5073317;28;20040;-64
2024/01/21 04:04:39;;;;;;;6.90;2.67;;;1.40;99.90;;;;;;5091636;28;20032;-64
2024/01/21 04:07:05;;;;;;;7.28;3.10;;;1.40;99.90;;;;;;5089580;28;20036;-64
2024/01/21 04:09:32;;;;;;;7.47;3.55;;;1.40;99.90;;;;;;5107139;28;20071;-64
2024/01/21 04:12:00;;;;;;;7.38;3.85;;;1.40;99.90;;;;;;5107638;28;20043;-64
2024/01/21 04:14:26;;;;;;;9.73;3.63;;;1.40;99.90;;;;;;5072775;28;20503;-64
2024/01/21 04:16:52;;;;;;;8.30;3.88;;;1.40;99.90;;;;;;5107388;28;20044;-64
2024/01/21 04:19:18;;;;;;;7.60;3.50;;;1.30;99.90;;;;;;5110320;28;20458;-64
2024/01/21 04:21:44;;;;;;;7.75;3.78;;;1.30;99.90;;;;;;5109955;28;20044;-64
2024/01/21 04:24:12;;;;;;;8.43;3.35;;;1.30;99.90;;;;;;5077122;28;20040;-64
2024/01/21 04:26:38;;;;;;;6.85;3.42;;;1.30;99.90;;;;;;5111246;28;20097;-64
2024/01/21 04:29:04;;;;;;;8.90;3.95;;;1.20;99.90;;;;;;5110399;28;20489;-64
2024/01/21 04:31:29;;;;;;;8.38;3.40;;;1.20;99.90;;;;;;5093866;28;20043;-64
2024/01/21 04:33:55;;;;;;;6.28;3.22;;;1.20;99.90;;;;;;5093400;28;20136;-64
2024/01/21 04:36:22;;;;;;;8.50;3.03;;;1.20;99.90;;;;;;5093302;28;20044;-64
2024/01/21 04:38:49;;;;;;;6.70;3.35;;;1.10;99.90;;;;;;5110577;28;20048;-64
2024/01/21 04:41:15;;;;;;;6.70;2.92;;;1.20;99.90;;;;;;5093258;28;20146;-64
2024/01/21 04:43:43;;;;;;;6.50;3.40;;;1.10;99.90;;;;;;5093692;28;20044;-64
2024/01/21 04:46:12;;;;;;;6.93;3.40;;;1.10;99.90;;;;;;5077023;28;20071;-64
2024/01/21 04:48:39;;;;;;;7.22;2.97;;;1.10;99.90;;;;;;5092927;28;20062;-64
2024/01/21 04:51:08;;;;;;;8.07;3.05;;;1.10;99.90;;;;;;5093736;28;20050;-64
2024/01/21 04:53:33;;;;;;;6.68;2.85;;;1.10;99.90;;;;;;5110356;28;20040;-64
2024/01/21 04:55:59;;;;;;;6.38;3.22;;;1.20;99.90;;;;;;5109882;28;20362;-64
2024/01/21 04:58:25;;;;;;;6.20;2.75;;;1.20;99.90;;;;;;5093230;28;20060;-64
2024/01/21 05:00:51;;;;;;;6.38;2.83;;;1.10;99.90;;;;;;5094566;28;20036;-64
2024/01/21 05:03:16;;;;;;;7.65;3.63;;;1.10;99.90;;;;;;5093643;28;20098;-64
2024/01/21 05:05:42;;;;;;;6.70;2.70;;;1.10;99.90;;;;;;5109637;28;20024;-64
2024/01/21 05:08:08;;;;;;;8.27;3.85;;;1.20;99.90;;;;;;5094614;28;20431;-64
2024/01/21 05:10:34;;;;;;;7.53;3.30;;;1.20;99.90;;;;;;5109240;28;20134;-64
2024/01/21 05:13:02;;;;;;;7.82;3.05;;;1.20;99.90;;;;;;5110412;28;20097;-64
2024/01/21 05:15:28;;;;;;;7.70;3.35;;;1.20;99.90;;;;;;5094059;28;20044;-64
2024/01/21 05:17:56;;;;;;;6.88;2.50;;;1.20;99.90;;;;;;5092306;28;20047;-64
2024/01/21 05:20:22;;;;;;;7.72;3.67;;;1.20;99.90;;;;;;5092951;28;20549;-64
2024/01/21 05:22:50;;;;;;;7.05;3.17;;;1.10;99.90;;;;;;5092876;28;20048;-64
2024/01/21 05:25:19;;;;;;;8.35;3.47;;;1.10;99.90;;;;;;5093506;28;20040;-64
2024/01/21 05:27:45;;;;;;;8.13;3.30;;;1.10;99.90;;;;;;5109814;28;20373;-64
2024/01/21 05:30:12;;;;;;;6.65;3.30;;;1.10;99.90;;;;;;5108308;28;20044;-64
2024/01/21 05:32:38;;;;;;;7.78;3.03;;;1.10;99.90;;;;;;5092758;28;20119;-64
2024/01/21 05:35:06;;;;;;;6.80;2.90;;;1.20;99.90;;;;;;5092529;28;20055;-64
2024/01/21 05:37:33;;;;;;;6.35;2.92;;;1.20;99.90;;;;;;5091529;28;20043;-64
2024/01/21 05:39:58;;;;;;;7.43;3.03;;;1.20;99.90;;;;;;5110125;28;20059;-64
2024/01/21 05:42:24;;;;;;;7.68;3.10;;;1.20;99.90;;;;;;5092401;28;20485;-64
2024/01/21 05:44:50;;;;;;;6.82;2.90;;;1.20;99.90;;;;;;5108926;28;20052;-64
2024/01/21 05:47:15;;;;;;;6.32;2.95;;;1.20;99.90;;;;;;5092222;28;20640;-64
2024/01/21 05:49:41;;;;;;;6.32;2.67;;;1.20;99.90;;;;;;5109421;28;20439;-64
2024/01/21 05:52:07;;;;;;;6.22;3.15;;;1.20;99.90;;;;;;5091582;28;20044;-64
2024/01/21 05:54:33;;;;;;;6.00;2.67;;;1.20;99.90;;;;;;5109624;28;20046;-64
2024/01/21 05:56:58;;;;;;;6.88;3.15;;;1.20;99.90;;;;;;5092600;28;20507;-64
2024/01/21 05:59:24;;;;;;;7.22;3.03;;;1.20;99.90;;;;;;5090835;28;20454;-64
2024/01/21 06:01:50;;;;;;;6.55;2.85;;;1.20;99.90;;;;;;5107994;28;20412;-64
2024/01/21 06:04:16;;;;;;;6.00;2.63;;;1.20;99.90;;;;;;5092099;28;20044;-64
2024/01/21 06:06:42;;;;;;;6.75;2.55;;;1.10;99.90;;;;;;5090993;28;20044;-64
2024/01/21 06:09:08;;;;;;;7.00;3.10;;;1.10;99.90;;;;;;5092153;28;20044;-64
2024/01/21 06:11:34;;;;;;;7.70;2.65;;;1.20;99.90;;;;;;5091960;28;20040;-64
2024/01/21 06:14:02;;;;;;;6.47;2.75;;;1.20;99.90;;;;;;5092616;28;20112;-64
2024/01/21 06:16:27;;;;;;;6.53;2.97;;;1.20;99.90;;;;;;5074848;28;20082;-64
2024/01/21 06:18:53;;;;;;;6.55;3.13;;;1.20;99.90;;;;;;5093185;28;20077;-64
2024/01/21 06:21:19;;;;;;;6.43;3.15;;;1.20;99.90;;;;;;5092305;28;20473;-64
2024/01/21 06:23:47;;;;;;;8.45;2.75;;;1.20;99.90;;;;;;5091539;28;20530;-64
2024/01/21 06:26:22;;;;;;;6.60;2.72;;;1.20;99.90;;;;;;5091912;28;20044;-63
2024/01/21 06:28:51;;;;;;;6.90;3.17;;;1.20;99.90;;;;;;5073842;28;20036;-64
2024/01/21 06:31:17;;;;;;;7.28;2.67;;;1.30;99.90;;;;;;5091147;28;20047;-64
2024/01/21 06:33:43;;;;;;;7.97;2.95;;;1.30;99.90;;;;;;5090984;28;20393;-64
2024/01/21 06:36:09;;;;;;;6.93;2.35;;;1.20;99.90;;;;;;5091586;28;20039;-64
2024/01/21 06:38:35;;;;;;;6.50;2.80;;;1.20;99.90;;;;;;5108314;28;20102;-64
2024/01/21 06:41:02;;;;;;;5.90;2.85;;;1.30;99.90;;;;;;5107494;28;20052;-64
2024/01/21 06:43:30;;;;;;;8.25;3.33;;;1.20;99.90;;;;;;5108147;28;20039;-64
2024/01/21 06:45:58;;;;;;;6.70;3.33;;;1.20;99.90;;;;;;5108746;28;20079;-64
2024/01/21 06:48:24;;;;;;;7.63;3.80;;;1.30;99.90;;;;;;5107543;28;20443;-64
2024/01/21 06:50:51;;;;;;;8.25;2.92;;;1.20;99.90;;;;;;5092458;28;20040;-64
2024/01/21 06:53:17;;;;;;;7.57;2.72;;;1.30;99.90;;;;;;5091368;28;20109;-64
2024/01/21 06:55:47;;;;;;;7.20;2.88;;;1.30;99.90;;;;;;5090307;28;20382;-64
2024/01/21 06:58:12;;;;;;;6.68;2.80;;;1.40;99.90;;;;;;5090834;28;20513;-64
2024/01/21 07:00:38;;;;;;;7.68;3.10;;;1.40;99.90;;;;;;5090680;28;20048;-64
2024/01/21 07:03:04;;;;;;;5.82;2.65;;;1.40;99.90;;;;;;5081132;28;20401;-64
2024/01/21 07:05:32;;;;;;;6.57;3.10;;;1.40;99.90;;;;;;5090909;28;20124;-64
2024/01/21 07:07:58;;;;;;;7.82;3.22;;;1.50;99.90;;;;;;5108485;28;20142;-64
2024/01/21 07:10:23;;;;;;;6.78;3.33;;;1.50;99.90;;;;;;5090002;28;20528;-64
2024/01/21 07:12:51;;;;;;;6.32;2.75;;;1.60;99.90;;;;;;5108086;28;20040;-64
2024/01/21 07:15:17;;;;;;;9.23;3.90;;;1.60;99.90;;;;;;5107780;28;20069;-64
2024/01/21 07:17:43;;;;;;;6.93;3.05;;;1.60;99.90;;;;;;5107333;28;20048;-64
2024/01/21 07:20:12;;;;;;;7.65;3.00;;;1.70;99.90;;;;;;5107825;28;20043;-64
2024/01/21 07:22:38;;;;;;;9.25;3.45;;;1.60;99.90;;;;;;5090674;28;20404;-64
2024/01/21 07:25:04;;;;;;;8.93;3.45;;;1.70;99.90;;;;;;5091742;28;20036;-64
2024/01/21 07:27:29;;;;;;;7.78;3.92;;;1.70;99.90;;;;;;5090666;28;20051;-64
2024/01/21 07:29:55;;;;;;;7.85;3.45;;;1.70;99.90;;;;;;5090232;28;20582;-64
2024/01/21 07:32:21;;;;;;;8.95;3.65;;;1.70;99.90;;;;;;5107218;28;20055;-64
2024/01/21 07:34:48;;;;;;;10.32;4.47;;;1.70;99.90;;;;;;5090556;28;20044;-64
2024/01/21 07:37:14;;;;;;;7.45;3.50;;;1.70;99.90;;;;;;5091276;28;20505;-64
2024/01/21 07:39:42;;;;;;;8.27;3.70;;;1.60;99.90;;;;;;5090636;28;20040;-64
2024/01/21 07:42:07;;;;;;;7.72;3.78;;;1.60;99.90;;;;;;5107384;28;20051;-64
2024/01/21 07:44:33;;;;;;;8.07;3.45;;;1.60;99.90;;;;;;5089669;28;20039;-64
2024/01/21 07:46:59;;;;;;;8.15;3.83;;;1.60;99.90;;;;;;5107673;28;20040;-64
2024/01/21 07:49:25;;;;;;;10.43;3.75;;;1.70;99.90;;;;;;5107532;28;20052;-64
2024/01/21 07:51:51;;;;;;;8.25;3.08;;;1.60;99.90;;;;;;5091108;28;20067;-64
2024/01/21 07:54:17;;;;;;;7.53;3.72;;;1.60;99.90;;;;;;5093652;28;20040;-64
2024/01/21 07:56:43;;;;;;;7.90;3.65;;;1.70;99.90;;;;;;5094653;28;20097;-64
2024/01/21 07:59:08;;;;;;;6.68;3.65;;;1.70;99.90;;;;;;5110673;28;20083;-65
2024/01/21 08:01:34;;;;;;;7.22;3.53;;;1.70;99.90;;;;;;5094336;28;20401;-65
2024/01/21 08:04:00;;;;;;;9.23;3.92;;;1.70;99.90;;;;;;5111383;28;20378;-65
2024/01/21 08:06:25;;;;;;;9.43;4.07;;;1.70;99.90;;;;;;5093519;28;20054;-65
2024/01/21 08:08:51;;;;;;;8.05;3.90;;;1.70;99.90;;;;;;5094316;28;20050;-65
2024/01/21 08:11:17;;;;;;;8.95;5.30;;;1.70;99.90;;;;;;5094291;28;20067;-64
2024/01/21 08:13:44;;;;;;;7.68;3.78;;;1.70;99.90;;;;;;5093438;28;20048;-64
2024/01/21 08:16:10;;;;;;;9.20;4.25;;;1.70;99.90;;;;;;5093986;28;20051;-65
2024/01/21 08:18:36;;;;;;;8.48;4.22;;;1.70;99.90;;;;;;5094270;28;20049;-64
2024/01/21 08:21:02;;;;;;;9.95;4.82;;;1.60;99.90;;;;;;5093463;28;20040;-64
2024/01/21 08:23:27;;;;;;;8.85;4.57;;;1.70;99.90;;;;;;5077146;28;20404;-64
2024/01/21 08:25:53;;;;;;;8.88;3.88;;;1.70;99.90;;;;;;5093787;28;20532;-64
2024/01/21 08:28:19;;;;;;;10.30;4.93;;;1.70;99.90;;;;;;5093325;28;20443;-64
2024/01/21 08:30:44;;;;;;;9.82;4.47;;;1.70;99.90;;;;;;5093830;28;20405;-65
2024/01/21 08:33:10;;;;;;;9.55;4.53;;;1.70;99.90;;;;;;5093351;28;20413;-64
2024/01/21 08:35:36;;;;;;;9.02;4.55;;;1.70;99.90;;;;;;5093701;28;20067;-65
2024/01/21 08:38:02;;;;;;;7.68;4.20;;;1.70;99.90;;;;;;5093515;28;20048;-64
2024/01/21 08:40:28;;;;;;;9.43;4.80;;;1.60;99.90;;;;;;5092552;28;20124;-64
2024/01/21 08:42:53;;;;;;;10.30;5.13;;;1.60;99.90;;;;;;5093000;28;20047;-64
2024/01/21 08:45:19;;;;;;;10.15;4.68;;;1.60;99.90;;;;;;5090055;28;20477;-64
2024/01/21 08:47:45;;;;;;;9.00;4.70;;;1.60;99.90;;;;;;5090526;28;20044;-65
2024/01/21 08:50:11;;;;;;;11.30;5.50;;;1.60;99.90;;;;;;5090865;28;20503;-65
2024/01/21 08:52:37;;;;;;;10.32;5.20;;;1.60;99.90;;;;;;5091359;28;20040;-65
2024/01/21 08:55:04;;;;;;;10.05;5.20;;;1.60;99.90;;;;;;5107544;28;20734;-64
2024/01/21 08:57:30;;;;;;;10.45;4.63;;;1.60;99.90;;;;;;5090471;28;20492;-64
2024/01/21 08:59:56;;;;;;;8.93;4.75;;;1.60;99.90;;;;;;5091414;28;20059;-65
2024/01/21 09:02:21;;;;;;;10.82;5.63;;;1.60;99.90;;;;;;5090300;28;20060;-64
2024/01/21 09:04:47;;;;;;;10.32;4.90;;;1.60;99.90;;;;;;5090089;28;20065;-64
2024/01/21 09:07:13;;;;;;;11.80;5.07;;;1.60;99.90;;;;;;5090254;28;20123;-65
2024/01/21 09:09:38;;;;;;;10.38;5.82;;;1.70;99.90;;;;;;5089917;28;20374;-65
2024/01/21 09:12:04;;;;;;;9.13;4.85;;;1.80;99.90;;;;;;5107955;28;20036;-64
2024/01/21 09:14:30;;;;;;;11.55;5.07;;;1.80;99.90;;;;;;5090544;28;20632;-64
2024/01/21 09:16:56;;;;;;;9.60;5.25;;;1.90;99.90;;;;;;5090449;28;20039;-64
2024/01/21 09:19:22;;;;;;;9.82;4.55;;;1.90;99.90;;;;;;5090373;28;20035;-65
2024/01/21 09:21:48;;;;;;;9.88;5.97;;;2.00;99.90;;;;;;5090363;28;20040;-64
2024/01/21 09:24:14;;;;;;;12.15;4.70;;;2.00;99.90;;;;;;5087444;28;20040;-64
2024/01/21 09:26:41;;;;;;;8.60;4.50;;;2.10;99.90;;;;;;5088531;28;20514;-64
2024/01/21 09:29:06;;;;;;;10.98;5.40;;;2.20;99.90;;;;;;5088568;28;20500;-65
2024/01/21 09:31:32;;;;;;;8.60;4.70;;;2.20;99.90;;;;;;5088044;28;20039;-65
2024/01/21 09:33:58;;;;;;;8.65;5.03;;;2.30;99.90;;;;;;5089786;28;20408;-65
2024/01/21 09:36:24;;;;;;;10.13;4.63;;;2.40;99.90;;;;;;5089175;28;20040;-65
2024/01/21 09:38:53;;;;;;;11.40;5.20;;;2.50;99.90;;;;;;5091589;28;20098;-64
2024/01/21 09:41:59;;;;;;;9.25;4.78;;;2.50;99.90;;;;;;5089136;28;20051;-65
2024/01/21 09:44:28;;;;;;;10.43;5.03;;;2.50;99.90;;;;;;5010343;28;20041;-65
2024/01/21 09:46:59;;;;;;;11.98;4.38;;;2.50;99.90;;;;;;5011576;28;20033;-64
2024/01/21 09:49:25;;;;;;;8.20;4.45;;;2.60;99.90;;;;;;5051319;28;20044;-64
2024/01/21 09:51:52;;;;;;;10.30;5.07;;;2.60;99.90;;;;;;5088744;28;20040;-64
2024/01/21 09:54:22;;;;;;;9.25;4.90;;;2.70;99.90;;;;;;5089448;28;20043;-64
2024/01/21 09:56:48;;;;;;;9.75;4.68;;;2.70;99.90;;;;;;5072181;28;20386;-63
2024/01/21 09:59:16;;;;;;;8.85;4.35;;;2.80;99.90;;;;;;5088100;28;20083;-63
2024/01/21 10:01:41;;;;;;;9.43;5.05;;;2.90;99.90;;;;;;5088941;28;20036;-64
2024/01/21 10:04:09;;;;;;;10.85;5.55;;;2.90;99.90;;;;;;5089708;28;20489;-64
2024/01/21 10:06:35;;;;;;;10.23;5.30;;;2.90;99.90;;;;;;5088519;28;20097;-64
2024/01/21 10:09:14;;;;;;;10.63;5.85;;;2.90;99.90;;;;;;5093143;28;20047;-64
2024/01/21 10:11:40;;;;;;;10.85;6.43;;;2.90;99.90;;;;;;5088476;28;20075;-64
2024/01/21 10:14:06;;;;;;;8.88;4.60;;;3.00;99.90;;;;;;5089735;28;20522;-64
2024/01/21 10:16:32;;;;;;;11.05;5.75;;;3.00;99.90;;;;;;5087855;28;20048;-63
2024/01/21 10:18:57;;;;;;;16.13;5.75;;;3.00;99.90;;;;;;5088213;28;20123;-63
2024/01/21 10:21:23;;;;;;;9.50;5.28;;;3.10;99.90;;;;;;5088898;28;20683;-64
2024/01/21 10:23:49;;;;;;;11.52;5.88;;;3.10;99.90;;;;;;5088937;28;20471;-64
2024/01/21 10:26:15;;;;;;;12.15;6.07;;;3.20;99.90;;;;;;5088173;28;20409;-64
2024/01/21 10:28:41;;;;;;;10.27;5.35;;;3.20;99.90;;;;;;5089043;28;20552;-64
2024/01/21 10:31:07;;;;;;;11.95;6.28;;;3.30;99.90;;;;;;5090802;28;20247;-63
2024/01/21 10:33:33;;;;;;;9.35;5.18;;;3.30;99.90;;;;;;5105287;28;20054;-64
2024/01/21 10:36:01;;;;;;;12.25;6.65;;;3.30;99.90;;;;;;5089403;28;20051;-63
2024/01/21 10:38:36;;;;;;;10.93;5.30;;;3.30;99.90;;;;;;5088608;28;20056;-64
2024/01/21 10:41:03;;;;;;;9.50;5.10;;;3.40;99.90;;;;;;5087992;28;20048;-63
2024/01/21 10:43:30;;;;;;;11.70;6.13;;;3.30;99.90;;;;;;5087970;28;20057;-63
2024/01/21 10:45:58;;;;;;;14.00;6.70;;;3.40;99.90;;;;;;5088537;28;20048;-63
2024/01/21 10:48:25;;;;;;;10.27;5.88;;;3.40;99.90;;;;;;5089022;28;20079;-64
2024/01/21 10:50:53;;;;;;;9.15;5.18;;;3.40;99.90;;;;;;5071018;28;20113;-63
2024/01/21 10:53:20;;;;;;;13.07;6.85;;;3.40;99.90;;;;;;5087641;28;20089;-64
2024/01/21 10:55:47;;;;;;;11.20;5.75;;;3.40;99.90;;;;;;5086714;28;20129;-64
2024/01/21 10:58:13;;;;;;;9.65;5.15;;;3.40;99.90;;;;;;5088930;28;20564;-63
2024/01/21 11:00:40;;;;;;;9.32;5.15;;;3.50;99.90;;;;;;5088005;28;20039;-63
2024/01/21 11:03:26;;;;;;;10.73;6.15;;;3.50;99.90;;;;;;5087298;28;20036;-64
2024/01/21 11:05:54;;;;;;;10.73;5.70;;;3.50;99.90;;;;;;5088024;28;20082;-63
2024/01/21 11:08:23;;;;;;;9.70;5.22;;;3.50;99.90;;;;;;5087180;28;20113;-64
2024/01/21 11:11:21;;;;;;;12.40;5.45;;;3.60;99.90;;;;;;5087925;28;20044;-63
2024/01/21 11:13:46;;;;;;;8.38;5.00;;;3.60;99.90;;;;;;5087943;28;20079;-63
2024/01/21 11:16:28;;;;;;;12.75;6.22;;;3.60;99.90;;;;;;5086798;28;20068;-63
2024/01/21 11:18:57;;;;;;;11.95;6.82;;;3.60;99.90;;;;;;5070468;28;20131;-63
2024/01/21 11:21:28;;;;;;;11.10;5.45;;;3.60;99.90;;;;;;5089312;28;20071;-63
2024/01/21 11:24:04;;;;;;;11.07;5.85;;;3.60;99.90;;;;;;5087013;28;20568;-63
2024/01/21 11:26:41;;;;;;;12.18;6.13;;;3.60;99.90;;;;;;5082441;28;20173;-62
2024/01/21 11:29:26;;;;;;;11.98;6.38;;;3.60;99.90;;;;;;5085216;28;20048;-63
2024/01/21 11:31:58;;;;;;;10.00;5.60;;;3.70;99.90;;;;;;5085659;28;20442;-63
2024/01/21 11:34:24;;;;;;;13.38;7.13;;;3.70;99.90;;;;;;5087534;28;20500;-63
2024/01/21 11:36:51;;;;;;;15.55;7.45;;;3.70;99.90;;;;;;5086507;28;20055;-62
2024/01/21 11:39:21;;;;;;;15.27;7.40;;;3.70;99.90;;;;;;5087666;28;20055;-63
2024/01/21 11:41:47;;;;;;;11.65;6.55;;;3.70;99.90;;;;;;5087187;28;20096;-63
2024/01/21 11:44:24;;;;;;;13.52;7.35;;;3.70;99.90;;;;;;5087411;28;20040;-63
2024/01/21 11:46:53;;;;;;;18.73;8.43;;;3.70;99.90;;;;;;5088389;28;20043;-63
2024/01/21 11:49:20;;;;;;;16.67;8.48;;;3.70;99.90;;;;;;5088488;28;20044;-62
2024/01/21 11:51:46;;;;;;;14.73;7.85;;;3.70;99.90;;;;;;5086983;28;20111;-63
2024/01/21 11:54:12;;;;;;;14.25;7.65;;;3.70;99.90;;;;;;5087322;28;20082;-63
2024/01/21 11:56:39;;;;;;;14.38;8.10;;;3.70;99.90;;;;;;5087110;28;20052;-63
2024/01/21 11:59:06;;;;;;;17.02;7.90;;;3.70;99.90;;;;;;5070853;28;20146;-63
2024/01/21 12:01:33;;;;;;;14.02;8.38;;;3.70;99.90;;;;;;5087608;28;20044;-63
2024/01/21 12:04:07;;;;;;;15.98;7.85;;;3.70;99.90;;;;;;5088122;28;20044;-63
2024/01/21 12:06:40;;;;;;;16.13;7.85;;;3.80;99.90;;;;;;5071029;28;20043;-63
2024/01/21 12:09:07;;;;;;;13.43;8.45;;;3.80;99.90;;;;;;5087450;28;20093;-62
2024/01/21 12:11:37;;;;;;;16.13;7.35;;;3.80;99.90;;;;;;5087121;28;20044;-63
2024/01/21 12:14:08;;;;;;;15.18;8.70;;;3.80;99.90;;;;;;5088091;28;20109;-62
2024/01/21 12:16:35;;;;;;;17.17;8.20;;;3.80;99.90;;;;;;5087263;28;20036;-63
2024/01/21 12:19:01;;;;;;;15.77;7.28;;;3.80;99.90;;;;;;5085397;28;20067;-63
2024/01/21 12:21:31;;;;;;;19.55;9.52;;;3.80;99.90;;;;;;5070585;28;20046;-63
2024/01/21 12:23:59;;;;;;;17.70;8.45;;;3.90;99.90;;;;;;5070946;28;20083;-63
2024/01/21 12:26:25;;;;;;;18.65;9.23;;;3.90;99.90;;;;;;5086949;28;20036;-63
2024/01/21 12:28:58;;;;;;;15.43;8.23;;;3.90;99.90;;;;;;5086252;28;20052;-63
2024/01/21 12:31:35;;;;;;;17.45;9.80;;;4.00;99.90;;;;;;5087458;28;20036;-62
2024/01/21 12:34:02;;;;;;;17.35;8.10;;;4.00;99.90;;;;;;5086925;28;20086;-63
2024/01/21 12:36:36;;;;;;;17.52;9.32;;;4.10;99.90;;;;;;5087752;28;20051;-63
2024/01/21 12:39:06;;;;;;;16.50;8.90;;;4.10;99.90;;;;;;5088385;28;20054;-63
2024/01/21 12:41:34;;;;;;;20.42;9.27;;;4.00;99.90;;;;;;5090312;28;20052;-63
2024/01/21 12:44:00;;;;;;;14.73;8.10;;;4.10;99.90;;;;;;5092603;28;20079;-62
2024/01/21 12:46:26;;;;;;;20.27;10.48;;;4.20;99.90;;;;;;5073601;28;20082;-63
2024/01/21 12:48:52;;;;;;;17.27;9.45;;;4.20;99.90;;;;;;5091391;28;20036;-63
2024/01/21 12:51:18;;;;;;;15.68;8.77;;;4.20;99.90;;;;;;5091445;28;20035;-63